Time;durP1;ratioP1;P1;durP2;ratioP2;P2;SDS_P1;SDS_P2;PMS_P1;PMS_P2;Temp;Humidity;BMP_temperature;BMP_pressure;BME280_temperature;BME280_humidity;BME280_pressure;Samples;Min_cycle;Max_cycle;Signal;HPM_P1;HPM_P2
2023/08/25 00:00:51;;;;;;;26.50;13.20;;;19.00;99.90;;;;;;5044619;28;20228;-63
2023/08/25 00:03:20;;;;;;;26.70;13.40;;;19.00;99.90;;;;;;5041085;28;20694;-62
2023/08/25 00:05:53;;;;;;;22.70;13.23;;;19.00;99.90;;;;;;5044579;28;20193;-63
2023/08/25 00:08:22;;;;;;;26.67;13.90;;;19.00;99.90;;;;;;5044247;28;20213;-63
2023/08/25 00:10:50;;;;;;;27.60;13.13;;;19.00;99.90;;;;;;5039499;28;20221;-63
2023/08/25 00:13:18;;;;;;;24.67;13.73;;;19.00;99.90;;;;;;5041610;28;20224;-63
2023/08/25 00:15:47;;;;;;;26.70;12.80;;;19.00;99.90;;;;;;5040149;28;20220;-63
2023/08/25 00:18:15;;;;;;;24.77;13.10;;;18.90;99.90;;;;;;5041275;28;20244;-62
2023/08/25 00:20:43;;;;;;;26.83;13.40;;;18.90;99.90;;;;;;5042268;28;20216;-63
2023/08/25 00:23:13;;;;;;;24.87;12.97;;;18.90;99.90;;;;;;5035793;28;20214;-63
2023/08/25 00:25:44;;;;;;;23.10;12.57;;;18.90;99.90;;;;;;5040584;28;20235;-63
2023/08/25 00:28:13;;;;;;;21.60;12.23;;;18.80;99.90;;;;;;5047704;28;20729;-63
2023/08/25 00:30:41;;;;;;;22.93;11.90;;;18.90;99.90;;;;;;5044029;28;20216;-63
2023/08/25 00:33:09;;;;;;;22.00;12.00;;;18.80;99.90;;;;;;5045778;28;20193;-63
2023/08/25 00:35:38;;;;;;;23.97;11.90;;;18.80;99.90;;;;;;5045502;28;20187;-63
2023/08/25 00:38:06;;;;;;;21.00;12.20;;;18.80;99.90;;;;;;5039462;28;20228;-63
2023/08/25 00:40:37;;;;;;;19.30;12.00;;;18.80;99.90;;;;;;5043067;28;20239;-63
2023/08/25 00:43:06;;;;;;;24.07;13.27;;;18.80;99.90;;;;;;5044287;28;20291;-63
2023/08/25 00:45:38;;;;;;;21.87;12.33;;;18.70;99.90;;;;;;5045687;28;20220;-63
2023/08/25 00:48:07;;;;;;;20.87;12.07;;;18.70;99.90;;;;;;5046746;28;20208;-62
2023/08/25 00:50:36;;;;;;;23.53;12.67;;;18.80;99.90;;;;;;5032934;28;20639;-63
2023/08/25 00:53:06;;;;;;;19.77;11.97;;;18.70;99.90;;;;;;5040766;28;20594;-63
2023/08/25 00:55:37;;;;;;;21.73;11.70;;;18.70;99.90;;;;;;5035735;28;20228;-63
2023/08/25 00:58:07;;;;;;;20.70;12.20;;;18.70;99.90;;;;;;5037469;28;20225;-63
2023/08/25 01:00:36;;;;;;;17.73;12.00;;;18.70;99.90;;;;;;5046592;28;20232;-62
2023/08/25 01:03:07;;;;;;;21.37;11.30;;;18.70;99.90;;;;;;5040526;28;20226;-62
2023/08/25 01:05:36;;;;;;;17.30;11.27;;;18.60;99.90;;;;;;5042997;28;20220;-63
2023/08/25 01:08:05;;;;;;;22.70;11.10;;;18.60;99.90;;;;;;5033464;28;20554;-63
2023/08/25 01:10:44;;;;;;;16.30;11.17;;;18.60;99.90;;;;;;5044454;28;20228;-63
2023/08/25 01:13:24;;;;;;;20.87;10.60;;;18.60;99.90;;;;;;5036916;28;20676;-63
2023/08/25 01:15:55;;;;;;;18.23;10.87;;;18.60;99.90;;;;;;5032265;28;20575;-63
2023/08/25 01:18:28;;;;;;;17.17;10.33;;;18.50;99.90;;;;;;5043145;28;20698;-62
2023/08/25 01:20:58;;;;;;;18.37;10.33;;;18.50;99.90;;;;;;5039549;28;20240;-62
2023/08/25 01:23:35;;;;;;;20.10;10.30;;;18.50;99.90;;;;;;5045394;28;20193;-62
2023/08/25 01:26:07;;;;;;;18.83;9.50;;;18.50;99.90;;;;;;5046646;28;20216;-64
2023/08/25 01:28:39;;;;;;;18.70;10.63;;;18.50;99.90;;;;;;5048932;28;20220;-63
2023/08/25 01:31:07;;;;;;;16.20;10.47;;;18.50;99.90;;;;;;5022016;28;20258;-63
2023/08/25 01:33:39;;;;;;;18.33;9.90;;;18.50;99.90;;;;;;5039160;28;20333;-62
2023/08/25 01:36:17;;;;;;;17.63;9.80;;;18.50;99.90;;;;;;5039763;28;20199;-62
2023/08/25 01:38:52;;;;;;;15.87;9.30;;;18.50;99.90;;;;;;5039750;28;20190;-63
2023/08/25 01:41:30;;;;;;;17.63;9.77;;;18.50;99.90;;;;;;5031532;28;20223;-64
2023/08/25 01:44:02;;;;;;;19.27;9.93;;;18.50;99.90;;;;;;5046699;28;20216;-63
2023/08/25 01:46:34;;;;;;;18.33;10.00;;;18.40;99.90;;;;;;5047718;28;20319;-63
2023/08/25 01:49:04;;;;;;;15.57;9.83;;;18.40;99.90;;;;;;5037012;28;20232;-63
2023/08/25 01:51:33;;;;;;;19.37;10.33;;;18.40;99.90;;;;;;5044555;28;20220;-62
2023/08/25 01:54:02;;;;;;;17.00;10.30;;;18.40;99.90;;;;;;5035288;28;20201;-63
2023/08/25 01:56:31;;;;;;;18.70;10.73;;;18.40;99.90;;;;;;5044520;28;20185;-63
2023/08/25 01:59:00;;;;;;;18.13;10.27;;;18.40;99.90;;;;;;5044036;28;20220;-63
2023/08/25 02:01:30;;;;;;;17.07;10.03;;;18.40;99.90;;;;;;5043728;28;20220;-63
2023/08/25 02:03:59;;;;;;;21.83;10.63;;;18.40;99.90;;;;;;5044551;28;20699;-63
2023/08/25 02:06:27;;;;;;;17.13;10.27;;;18.40;99.90;;;;;;5046331;28;20223;-62
2023/08/25 02:08:55;;;;;;;17.87;9.67;;;18.40;99.90;;;;;;5048371;28;20223;-62
2023/08/25 02:11:24;;;;;;;18.10;10.43;;;18.40;99.90;;;;;;5045004;28;20282;-63
2023/08/25 02:13:53;;;;;;;16.80;10.47;;;18.40;99.90;;;;;;5019449;28;20227;-62
2023/08/25 02:16:22;;;;;;;21.93;11.00;;;18.50;99.90;;;;;;5042111;28;20228;-62
2023/08/25 02:18:50;;;;;;;18.07;10.97;;;18.50;99.90;;;;;;5031947;28;20217;-62
2023/08/25 02:21:19;;;;;;;21.53;11.30;;;18.60;99.90;;;;;;5039096;28;20228;-62
2023/08/25 02:23:48;;;;;;;18.30;10.10;;;18.60;99.90;;;;;;5039475;28;20276;-63
2023/08/25 02:26:16;;;;;;;17.77;10.63;;;18.60;99.90;;;;;;5040096;28;20694;-63
2023/08/25 02:28:45;;;;;;;14.73;9.80;;;18.60;99.90;;;;;;5039895;28;20221;-63
2023/08/25 02:31:14;;;;;;;24.00;10.73;;;18.70;99.90;;;;;;5023141;28;21357;-62
2023/08/25 02:33:43;;;;;;;21.20;10.30;;;18.70;99.90;;;;;;5031551;28;20253;-62
2023/08/25 02:36:11;;;;;;;20.53;10.03;;;18.70;99.90;;;;;;5042499;28;20186;-62
2023/08/25 02:38:39;;;;;;;16.27;9.73;;;18.70;99.90;;;;;;5023255;28;20648;-63
2023/08/25 02:41:08;;;;;;;20.90;10.20;;;18.70;99.90;;;;;;5049031;28;20697;-62
2023/08/25 02:43:36;;;;;;;20.93;10.50;;;18.70;99.90;;;;;;5047478;28;20231;-62
2023/08/25 02:46:04;;;;;;;17.10;9.47;;;18.70;99.90;;;;;;5038320;28;20240;-63
2023/08/25 02:48:34;;;;;;;18.83;9.53;;;18.70;99.90;;;;;;5035425;28;20799;-63
2023/08/25 02:51:02;;;;;;;19.63;9.67;;;18.70;99.90;;;;;;5039541;28;20196;-62
2023/08/25 02:53:30;;;;;;;15.53;9.50;;;18.60;99.90;;;;;;5044965;28;20196;-62
2023/08/25 02:55:58;;;;;;;14.80;9.23;;;18.60;99.90;;;;;;5042823;28;20729;-62
2023/08/25 02:58:27;;;;;;;15.03;8.80;;;18.50;99.90;;;;;;5040936;28;20307;-62
2023/08/25 03:00:55;;;;;;;23.20;9.77;;;18.50;99.90;;;;;;5043140;28;20217;-63
2023/08/25 03:03:23;;;;;;;20.20;10.87;;;18.40;99.90;;;;;;5050291;28;20251;-62
2023/08/25 03:05:53;;;;;;;19.77;10.10;;;18.40;99.90;;;;;;5039151;28;20301;-62
2023/08/25 03:08:23;;;;;;;17.87;9.57;;;18.40;99.90;;;;;;5031946;28;20291;-62
2023/08/25 03:10:53;;;;;;;18.43;9.53;;;18.30;99.90;;;;;;5036567;28;20224;-62
2023/08/25 03:13:21;;;;;;;15.13;9.30;;;18.30;99.90;;;;;;5039868;28;20316;-62
2023/08/25 03:15:55;;;;;;;20.00;9.77;;;18.30;99.90;;;;;;5043756;28;20221;-63
2023/08/25 03:18:23;;;;;;;16.97;10.47;;;18.40;99.90;;;;;;5044384;28;20591;-63
2023/08/25 03:20:53;;;;;;;24.90;10.60;;;18.40;99.90;;;;;;5029859;28;20220;-63
2023/08/25 03:23:22;;;;;;;17.47;9.97;;;18.40;99.90;;;;;;5040992;28;20233;-63
2023/08/25 03:25:50;;;;;;;16.77;9.67;;;18.40;99.90;;;;;;5034636;28;20227;-63
2023/08/25 03:28:19;;;;;;;15.80;9.77;;;18.40;99.90;;;;;;5041745;28;20217;-63
2023/08/25 03:30:51;;;;;;;16.47;9.93;;;18.40;99.90;;;;;;5030121;28;20229;-63
2023/08/25 03:33:19;;;;;;;20.87;9.90;;;18.40;99.90;;;;;;5023068;28;20243;-64
2023/08/25 03:35:47;;;;;;;16.37;10.30;;;18.40;99.90;;;;;;5046907;28;20184;-63
2023/08/25 03:38:17;;;;;;;16.97;10.57;;;18.50;99.90;;;;;;5041449;28;20216;-63
2023/08/25 03:40:48;;;;;;;18.63;9.87;;;18.50;99.90;;;;;;5028689;28;20667;-64
2023/08/25 03:43:22;;;;;;;17.03;9.67;;;18.50;99.90;;;;;;5044348;28;20220;-64
2023/08/25 03:45:54;;;;;;;17.67;9.97;;;18.60;99.90;;;;;;5018086;28;20216;-64
2023/08/25 03:48:29;;;;;;;16.97;9.77;;;18.60;99.90;;;;;;5027928;28;20225;-64
2023/08/25 03:51:11;;;;;;;15.20;9.47;;;18.60;99.90;;;;;;5039479;28;20212;-63
2023/08/25 03:53:41;;;;;;;25.43;10.53;;;18.60;99.90;;;;;;5027696;28;20220;-63
2023/08/25 03:56:09;;;;;;;22.00;9.63;;;18.60;99.90;;;;;;5036761;28;20213;-63
2023/08/25 03:58:37;;;;;;;13.37;8.50;;;18.60;99.90;;;;;;5022514;28;20212;-63
2023/08/25 04:01:06;;;;;;;16.43;8.83;;;18.50;99.90;;;;;;5040652;28;20228;-63
2023/08/25 04:03:34;;;;;;;11.37;7.63;;;18.50;99.90;;;;;;5048998;28;20298;-63
2023/08/25 04:06:03;;;;;;;17.83;7.83;;;18.50;99.90;;;;;;5038218;28;20205;-63
2023/08/25 04:08:31;;;;;;;15.27;8.17;;;18.50;99.90;;;;;;5036660;28;20201;-63
2023/08/25 04:11:01;;;;;;;15.17;8.57;;;18.50;99.90;;;;;;5042952;28;20220;-63
2023/08/25 04:13:29;;;;;;;14.13;9.07;;;18.50;99.90;;;;;;5036952;28;20700;-63
2023/08/25 04:15:58;;;;;;;11.27;8.00;;;18.50;99.90;;;;;;5039791;28;20231;-63
2023/08/25 04:18:27;;;;;;;16.47;9.60;;;18.50;99.90;;;;;;5023045;28;20327;-63
2023/08/25 04:20:55;;;;;;;14.33;9.00;;;18.50;99.90;;;;;;5040055;28;20208;-62
2023/08/25 04:23:26;;;;;;;12.30;9.37;;;18.50;99.90;;;;;;5036200;28;20259;-63
2023/08/25 04:25:54;;;;;;;15.90;9.30;;;18.60;99.90;;;;;;5038063;28;20765;-63
2023/08/25 04:28:25;;;;;;;18.00;9.00;;;18.60;99.90;;;;;;5040485;28;20575;-63
2023/08/25 04:30:54;;;;;;;17.47;8.67;;;18.60;99.90;;;;;;5038823;28;20224;-63
2023/08/25 04:33:26;;;;;;;15.93;9.60;;;18.60;99.90;;;;;;5039749;28;20724;-63
2023/08/25 04:35:54;;;;;;;13.93;9.17;;;18.60;99.90;;;;;;5039841;28;20193;-62
2023/08/25 04:38:22;;;;;;;14.93;9.07;;;18.70;99.90;;;;;;5035236;28;20196;-63
2023/08/25 04:40:51;;;;;;;12.80;9.10;;;18.70;99.90;;;;;;5044444;28;20231;-63
2023/08/25 04:43:19;;;;;;;20.23;9.67;;;18.70;99.90;;;;;;5043532;28;20229;-63
2023/08/25 04:45:48;;;;;;;15.27;9.23;;;18.80;99.90;;;;;;5041441;28;20225;-63
2023/08/25 04:48:17;;;;;;;15.90;9.37;;;18.80;99.90;;;;;;5029160;28;20236;-63
2023/08/25 04:50:45;;;;;;;19.23;8.90;;;18.80;99.90;;;;;;5034855;28;20213;-63
2023/08/25 04:53:13;;;;;;;12.03;9.07;;;18.80;99.90;;;;;;5028725;28;20300;-63
2023/08/25 04:55:42;;;;;;;14.97;9.27;;;18.80;99.90;;;;;;5034913;28;20223;-63
2023/08/25 04:58:10;;;;;;;14.77;9.77;;;18.80;99.90;;;;;;5033448;28;20247;-63
2023/08/25 05:00:38;;;;;;;12.40;8.67;;;18.90;99.90;;;;;;5044442;28;20231;-63
2023/08/25 05:03:09;;;;;;;19.83;9.40;;;18.80;99.90;;;;;;5032522;28;20544;-62
2023/08/25 05:05:38;;;;;;;15.40;9.10;;;18.80;99.90;;;;;;5043897;28;20196;-63
2023/08/25 05:08:07;;;;;;;14.90;9.07;;;18.80;99.90;;;;;;5041295;28;20549;-64
2023/08/25 05:10:36;;;;;;;14.03;9.57;;;18.90;99.90;;;;;;5045961;28;20973;-63
2023/08/25 05:13:04;;;;;;;15.70;9.33;;;18.80;99.90;;;;;;5039966;28;20726;-63
2023/08/25 05:15:33;;;;;;;19.07;8.93;;;18.80;99.90;;;;;;5039322;28;20224;-63
2023/08/25 05:18:01;;;;;;;18.30;9.77;;;18.80;99.90;;;;;;5046528;28;20280;-62
2023/08/25 05:20:32;;;;;;;14.97;9.43;;;18.80;99.90;;;;;;5047892;28;20278;-63
2023/08/25 05:23:01;;;;;;;18.60;9.50;;;18.80;99.90;;;;;;5027075;28;20235;-63
2023/08/25 05:25:29;;;;;;;20.13;9.60;;;18.80;99.90;;;;;;5040346;28;20212;-63
2023/08/25 05:27:57;;;;;;;12.83;9.23;;;18.80;99.90;;;;;;5040291;28;20224;-62
2023/08/25 05:30:25;;;;;;;16.17;9.43;;;18.80;99.90;;;;;;5046208;28;20228;-62
2023/08/25 05:32:54;;;;;;;14.37;9.30;;;18.80;99.90;;;;;;5040562;28;20283;-61
2023/08/25 05:35:23;;;;;;;17.20;9.87;;;18.80;99.90;;;;;;5029016;28;20185;-63
2023/08/25 05:37:52;;;;;;;13.67;10.33;;;18.70;99.90;;;;;;5039279;28;20217;-63
2023/08/25 05:40:24;;;;;;;19.03;11.20;;;18.80;99.90;;;;;;5043297;28;20844;-63
2023/08/25 05:42:52;;;;;;;17.90;10.73;;;18.70;99.90;;;;;;5041391;28;20240;-63
2023/08/25 05:45:21;;;;;;;18.80;11.57;;;18.80;99.90;;;;;;5032596;28;20224;-63
2023/08/25 05:47:49;;;;;;;16.13;11.10;;;18.80;99.90;;;;;;5029984;28;20208;-63
2023/08/25 05:50:18;;;;;;;17.60;10.80;;;18.80;99.90;;;;;;5043110;28;20259;-63
2023/08/25 05:52:47;;;;;;;15.07;10.10;;;18.80;99.90;;;;;;5046299;28;20243;-63
2023/08/25 05:55:17;;;;;;;16.67;11.00;;;18.80;99.90;;;;;;5044577;28;20637;-63
2023/08/25 05:57:45;;;;;;;24.10;12.50;;;18.80;99.90;;;;;;5047259;28;20336;-63
2023/08/25 06:00:14;;;;;;;31.83;15.17;;;18.90;99.90;;;;;;5043807;28;20569;-63
2023/08/25 06:02:43;;;;;;;48.80;17.93;;;18.80;99.90;;;;;;5042262;28;20216;-63
2023/08/25 06:05:11;;;;;;;40.30;18.03;;;18.80;99.90;;;;;;5041899;28;20324;-63
2023/08/25 06:07:40;;;;;;;39.53;18.10;;;18.80;99.90;;;;;;5045587;28;20225;-64
2023/08/25 06:10:09;;;;;;;35.00;18.37;;;18.90;99.90;;;;;;5043821;28;20222;-63
2023/08/25 06:12:39;;;;;;;35.73;17.50;;;18.80;99.90;;;;;;5037021;28;20677;-63
2023/08/25 06:15:09;;;;;;;45.60;19.13;;;18.80;99.90;;;;;;5044489;28;20506;-63
2023/08/25 06:17:37;;;;;;;45.83;19.57;;;18.80;99.90;;;;;;5045427;28;20188;-63
2023/08/25 06:20:07;;;;;;;45.53;20.07;;;18.90;99.90;;;;;;5045562;28;20324;-63
2023/08/25 06:22:35;;;;;;;52.00;20.97;;;18.90;99.90;;;;;;5033471;28;20351;-63
2023/08/25 06:25:04;;;;;;;50.97;21.93;;;18.90;99.90;;;;;;5040230;28;20521;-63
2023/08/25 06:27:32;;;;;;;48.20;22.23;;;18.90;99.90;;;;;;5042026;28;20216;-63
2023/08/25 06:30:03;;;;;;;56.83;21.87;;;19.00;99.90;;;;;;5037985;28;20626;-63
2023/08/25 06:32:31;;;;;;;55.97;22.70;;;19.00;99.90;;;;;;5041936;28;20199;-63
2023/08/25 06:35:00;;;;;;;48.50;21.87;;;19.10;99.90;;;;;;5045857;28;20259;-63
2023/08/25 06:37:28;;;;;;;61.57;22.73;;;19.10;99.90;;;;;;5045483;28;20307;-63
2023/08/25 06:39:56;;;;;;;54.70;23.20;;;19.10;99.90;;;;;;5036547;28;20221;-63
2023/08/25 06:42:25;;;;;;;63.90;25.07;;;19.20;99.90;;;;;;5042798;28;20252;-63
2023/08/25 06:44:53;;;;;;;58.70;24.37;;;19.20;99.90;;;;;;5032166;28;20548;-57
2023/08/25 06:47:23;;;;;;;52.00;22.83;;;19.20;99.90;;;;;;5040603;28;20229;-63
2023/08/25 06:49:51;;;;;;;57.30;23.43;;;19.20;99.90;;;;;;5039302;28;20230;-63
2023/08/25 06:52:19;;;;;;;64.40;25.23;;;19.20;99.90;;;;;;5038537;28;21339;-63
2023/08/25 06:54:48;;;;;;;60.80;24.33;;;19.20;99.90;;;;;;5025395;28;20213;-63
2023/08/25 06:57:16;;;;;;;59.90;24.60;;;19.10;99.90;;;;;;5035227;28;20224;-63
2023/08/25 06:59:45;;;;;;;55.93;24.77;;;19.20;99.90;;;;;;5042482;28;20224;-63
2023/08/25 07:02:13;;;;;;;62.67;25.43;;;19.20;99.90;;;;;;5036622;28;20232;-63
2023/08/25 07:04:43;;;;;;;65.17;26.20;;;19.20;99.90;;;;;;5032906;28;20981;-63
2023/08/25 07:07:11;;;;;;;68.00;27.67;;;19.20;99.90;;;;;;5028314;28;20602;-63
2023/08/25 07:09:40;;;;;;;63.50;26.67;;;19.20;99.90;;;;;;5035285;28;20250;-63
2023/08/25 07:12:11;;;;;;;65.73;27.13;;;19.20;99.90;;;;;;5038728;28;20216;-63
2023/08/25 07:14:40;;;;;;;64.97;26.63;;;19.20;99.90;;;;;;5036623;28;20224;-63
2023/08/25 07:17:08;;;;;;;65.23;27.87;;;19.30;99.90;;;;;;5043015;28;20230;-63
2023/08/25 07:19:36;;;;;;;68.20;26.73;;;19.30;99.90;;;;;;5040276;28;20231;-63
2023/08/25 07:22:08;;;;;;;56.73;26.60;;;19.30;99.90;;;;;;5043920;28;20637;-63
2023/08/25 07:24:37;;;;;;;61.10;27.73;;;19.30;99.90;;;;;;5039816;28;20220;-63
2023/08/25 07:27:05;;;;;;;68.57;29.47;;;19.30;99.90;;;;;;5034706;28;20195;-64
2023/08/25 07:29:36;;;;;;;68.93;29.00;;;19.40;99.90;;;;;;5037879;28;20224;-63
2023/08/25 07:32:05;;;;;;;75.70;30.60;;;19.40;99.90;;;;;;5031107;28;20213;-62
2023/08/25 07:34:33;;;;;;;77.40;29.87;;;19.50;99.90;;;;;;5039218;28;20229;-63
2023/08/25 07:37:02;;;;;;;73.37;29.50;;;19.50;99.90;;;;;;5044393;28;20227;-63
2023/08/25 07:39:31;;;;;;;66.43;28.67;;;19.50;99.90;;;;;;5043692;28;20216;-63
2023/08/25 07:42:00;;;;;;;81.90;30.83;;;19.50;99.90;;;;;;5038853;28;20189;-62
2023/08/25 07:44:28;;;;;;;78.33;31.27;;;19.50;99.90;;;;;;5046121;28;20190;-63
2023/08/25 07:46:56;;;;;;;69.17;30.90;;;19.50;99.90;;;;;;5038079;28;20240;-63
2023/08/25 07:49:25;;;;;;;72.53;30.03;;;19.40;99.90;;;;;;5033041;28;20226;-63
2023/08/25 07:51:53;;;;;;;73.77;30.00;;;19.40;99.90;;;;;;5043155;28;20568;-63
2023/08/25 07:54:21;;;;;;;74.03;29.63;;;19.40;99.90;;;;;;5037798;28;20221;-62
2023/08/25 07:56:51;;;;;;;75.83;30.67;;;19.40;99.90;;;;;;5032667;28;20288;-63
2023/08/25 07:59:19;;;;;;;64.13;28.60;;;19.40;99.90;;;;;;5040056;28;20242;-63
2023/08/25 08:01:48;;;;;;;76.77;30.70;;;19.40;99.90;;;;;;5040755;28;20217;-63
2023/08/25 08:04:16;;;;;;;82.20;31.73;;;19.50;99.90;;;;;;5040802;28;20784;-63
2023/08/25 08:06:44;;;;;;;76.27;31.47;;;19.60;99.90;;;;;;5041844;28;20221;-63
2023/08/25 08:09:13;;;;;;;73.30;31.77;;;19.60;99.90;;;;;;5044384;28;20213;-62
2023/08/25 08:11:41;;;;;;;79.67;31.63;;;19.70;99.90;;;;;;5028003;28;20194;-63
2023/08/25 08:14:11;;;;;;;75.13;32.47;;;19.90;99.90;;;;;;5040783;28;20229;-63
2023/08/25 08:16:39;;;;;;;74.43;30.47;;;20.00;99.90;;;;;;5043529;28;20228;-62
2023/08/25 08:19:07;;;;;;;68.33;30.40;;;20.20;99.90;;;;;;5041577;28;20234;-63
2023/08/25 08:21:36;;;;;;;67.33;31.50;;;20.50;99.90;;;;;;5045241;28;20234;-62
2023/08/25 08:24:04;;;;;;;59.13;29.70;;;20.70;99.90;;;;;;5046773;28;20794;-62
2023/08/25 08:26:33;;;;;;;60.23;29.90;;;20.80;99.90;;;;;;5042816;28;20199;-63
2023/08/25 08:29:02;;;;;;;56.13;28.23;;;20.80;99.90;;;;;;5039049;28;20230;-62
2023/08/25 08:31:32;;;;;;;60.83;30.07;;;21.00;99.90;;;;;;5029078;28;20269;-63
2023/08/25 08:34:00;;;;;;;50.90;26.67;;;21.00;99.90;;;;;;5030489;28;20214;-62
2023/08/25 08:36:32;;;;;;;49.90;25.43;;;21.10;99.90;;;;;;5021093;28;20701;-62
2023/08/25 08:39:02;;;;;;;43.73;24.10;;;21.30;99.90;;;;;;5035320;28;20198;-62
2023/08/25 08:41:32;;;;;;;42.67;24.73;;;21.40;99.90;;;;;;5038463;28;20199;-62
2023/08/25 08:44:04;;;;;;;40.20;23.37;;;21.40;99.90;;;;;;5017907;28;20239;-62
2023/08/25 08:46:37;;;;;;;40.17;23.10;;;21.50;99.90;;;;;;5046793;28;20218;-62
2023/08/25 08:49:06;;;;;;;40.17;22.57;;;21.40;99.90;;;;;;5044520;28;20220;-61
2023/08/25 08:51:36;;;;;;;42.80;21.60;;;21.40;99.90;;;;;;5026713;28;20231;-62
2023/08/25 08:54:06;;;;;;;37.67;22.63;;;21.40;99.90;;;;;;5039903;28;20276;-61
2023/08/25 08:56:34;;;;;;;38.03;22.23;;;21.60;99.90;;;;;;5040267;28;20220;-62
2023/08/25 08:59:04;;;;;;;43.83;21.53;;;22.00;99.90;;;;;;5046693;28;20215;-62
2023/08/25 09:01:34;;;;;;;32.27;19.23;;;22.40;99.90;;;;;;5043366;28;20215;-62
2023/08/25 09:04:06;;;;;;;31.10;19.73;;;22.80;99.90;;;;;;5045971;28;20244;-62
2023/08/25 09:06:36;;;;;;;28.50;19.10;;;23.10;99.90;;;;;;5042803;28;20229;-62
2023/08/25 09:09:08;;;;;;;32.60;20.00;;;23.20;99.90;;;;;;5047143;28;20205;-61
2023/08/25 09:11:37;;;;;;;31.03;19.20;;;23.30;99.90;;;;;;5033153;28;20240;-62
2023/08/25 09:14:05;;;;;;;27.27;19.03;;;23.30;99.90;;;;;;5049085;28;20221;-61
2023/08/25 09:16:36;;;;;;;33.00;20.23;;;23.40;99.90;;;;;;5047048;28;20768;-62
2023/08/25 09:19:06;;;;;;;27.57;18.87;;;23.30;99.90;;;;;;5041118;28;20293;-61
2023/08/25 09:21:34;;;;;;;29.93;20.03;;;23.10;99.90;;;;;;5041977;28;20255;-61
2023/08/25 09:24:04;;;;;;;29.00;18.93;;;22.90;99.90;;;;;;5043410;28;20619;-61
2023/08/25 09:26:37;;;;;;;29.03;19.23;;;22.80;99.90;;;;;;5047557;28;20211;-61
2023/08/25 09:29:05;;;;;;;28.10;18.40;;;22.90;99.90;;;;;;5045017;28;20319;-62
2023/08/25 09:31:35;;;;;;;33.90;20.57;;;23.10;99.90;;;;;;5028777;28;20240;-61
2023/08/25 09:34:05;;;;;;;29.90;20.03;;;23.30;99.90;;;;;;5035751;28;20598;-61
2023/08/25 09:36:34;;;;;;;32.00;20.83;;;23.40;99.90;;;;;;5045363;28;20283;-61
2023/08/25 09:39:02;;;;;;;31.40;20.53;;;23.40;99.90;;;;;;5046932;28;20517;-60
2023/08/25 09:41:35;;;;;;;28.60;18.47;;;23.30;99.90;;;;;;5038875;28;20201;-61
2023/08/25 09:44:04;;;;;;;36.50;23.17;;;23.10;99.90;;;;;;5044833;28;20738;-61
2023/08/25 09:46:34;;;;;;;36.27;24.77;;;22.90;99.90;;;;;;5044454;28;20245;-61
2023/08/25 09:49:04;;;;;;;41.00;25.83;;;22.80;99.90;;;;;;5045674;28;20227;-61
2023/08/25 09:51:36;;;;;;;39.87;26.10;;;22.90;99.90;;;;;;5027945;28;20223;-60
2023/08/25 09:54:09;;;;;;;37.40;25.23;;;23.00;99.90;;;;;;5039008;28;20202;-60
2023/08/25 09:56:41;;;;;;;43.33;25.67;;;23.00;99.90;;;;;;5042404;28;20193;-60
2023/08/25 09:59:11;;;;;;;43.33;26.00;;;22.90;99.90;;;;;;5030763;28;20590;-60
2023/08/25 10:01:42;;;;;;;42.07;25.77;;;22.80;99.90;;;;;;5033949;28;20224;-61
2023/08/25 10:04:11;;;;;;;37.40;24.60;;;22.90;99.90;;;;;;5047634;28;20236;-61
2023/08/25 10:06:40;;;;;;;28.27;20.80;;;23.10;99.90;;;;;;5036998;28;20222;-62
2023/08/25 10:09:09;;;;;;;35.33;22.37;;;23.50;99.90;;;;;;5031832;28;20302;-61
2023/08/25 10:11:40;;;;;;;28.57;22.03;;;23.70;99.90;;;;;;5029185;28;20300;-62
2023/08/25 10:14:10;;;;;;;27.57;20.30;;;23.70;99.90;;;;;;5030094;28;20217;-61
2023/08/25 10:16:45;;;;;;;32.77;20.90;;;23.50;99.90;;;;;;5042183;28;20229;-61
2023/08/25 10:19:15;;;;;;;34.40;19.83;;;23.30;99.90;;;;;;5043407;28;21778;-61
2023/08/25 10:21:45;;;;;;;27.20;19.77;;;23.10;99.90;;;;;;5042919;28;20229;-61
2023/08/25 10:24:15;;;;;;;29.93;19.50;;;23.10;99.90;;;;;;5039278;28;20747;-61
2023/08/25 10:26:44;;;;;;;27.33;19.13;;;23.10;99.90;;;;;;5040279;28;20287;-61
2023/08/25 10:29:14;;;;;;;28.03;18.57;;;23.00;99.90;;;;;;5046112;28;20254;-61
2023/08/25 10:31:49;;;;;;;25.63;18.57;;;23.00;99.90;;;;;;5043910;28;20713;-61
2023/08/25 10:34:31;;;;;;;24.97;17.30;;;23.00;99.90;;;;;;5043842;28;20267;-61
2023/08/25 10:37:07;;;;;;;25.13;17.80;;;22.90;99.90;;;;;;5046952;28;20227;-61
2023/08/25 10:39:49;;;;;;;31.77;18.60;;;22.80;99.90;;;;;;5041125;28;20238;-61
2023/08/25 10:42:26;;;;;;;27.17;18.03;;;22.80;99.90;;;;;;5043946;28;20217;-61
2023/08/25 10:44:56;;;;;;;26.67;18.50;;;22.90;99.90;;;;;;5037544;28;20229;-60
2023/08/25 10:47:29;;;;;;;31.37;18.37;;;22.80;99.90;;;;;;5042011;28;20227;-61
2023/08/25 10:50:03;;;;;;;29.83;18.13;;;22.70;99.90;;;;;;5043235;28;20574;-61
2023/08/25 10:52:32;;;;;;;29.50;18.27;;;22.60;99.90;;;;;;5044680;28;20223;-61
2023/08/25 10:55:24;;;;;;;23.83;17.20;;;22.60;99.90;;;;;;5046009;28;20904;-61
2023/08/25 10:57:53;;;;;;;29.10;18.90;;;22.80;99.90;;;;;;5043438;28;20560;-61
2023/08/25 11:00:30;;;;;;;29.93;19.93;;;23.10;99.90;;;;;;5040436;28;20221;-60
2023/08/25 11:03:01;;;;;;;31.37;19.70;;;23.30;99.90;;;;;;5048138;28;20204;-61
2023/08/25 11:05:45;;;;;;;38.17;22.73;;;23.60;99.90;;;;;;5041409;28;20599;-62
2023/08/25 11:08:25;;;;;;;30.70;19.80;;;23.80;99.90;;;;;;5048338;28;20228;-61
2023/08/25 11:11:13;;;;;;;33.30;19.83;;;23.80;99.90;;;;;;5029942;28;20314;-61
2023/08/25 11:13:43;;;;;;;29.53;19.23;;;23.90;99.90;;;;;;5044725;28;20248;-61
2023/08/25 11:16:13;;;;;;;29.17;20.13;;;23.90;99.90;;;;;;5044702;28;20311;-64
2023/08/25 11:18:43;;;;;;;27.87;18.17;;;23.90;99.90;;;;;;5044976;28;20322;-66
2023/08/25 11:21:12;;;;;;;28.37;17.17;;;24.30;99.90;;;;;;5045261;28;20205;-63
2023/08/25 11:23:42;;;;;;;22.67;15.43;;;24.70;99.90;;;;;;5046170;28;20194;-63
2023/08/25 11:26:15;;;;;;;24.60;15.63;;;24.70;99.90;;;;;;5043537;28;20218;-63
2023/08/25 11:28:46;;;;;;;27.73;15.60;;;24.60;99.90;;;;;;5045592;28;20225;-62
2023/08/25 11:31:15;;;;;;;24.00;15.45;;;24.50;99.90;;;;;;5042179;28;20315;-62
2023/08/25 11:33:45;;;;;;;27.93;15.40;;;24.40;99.90;;;;;;5041043;28;20217;-62
2023/08/25 11:36:16;;;;;;;24.40;15.17;;;24.20;99.90;;;;;;5034456;28;20882;-62
2023/08/25 11:38:50;;;;;;;24.03;15.00;;;24.00;99.90;;;;;;5037283;28;20212;-63
2023/08/25 11:41:19;;;;;;;25.80;14.83;;;23.80;99.90;;;;;;5043455;28;20213;-64
2023/08/25 11:43:48;;;;;;;25.47;14.90;;;23.70;99.90;;;;;;5045025;28;20231;-63
2023/08/25 11:46:17;;;;;;;26.77;14.03;;;23.70;99.90;;;;;;5043233;28;20217;-63
2023/08/25 11:48:50;;;;;;;24.73;14.77;;;23.70;99.90;;;;;;5043182;28;20233;-63
2023/08/25 11:51:19;;;;;;;22.83;14.33;;;23.70;99.90;;;;;;5031560;28;20229;-63
2023/08/25 11:53:47;;;;;;;23.77;15.40;;;23.60;99.90;;;;;;5041770;28;20205;-64
2023/08/25 11:56:17;;;;;;;29.73;15.27;;;23.50;99.90;;;;;;5036546;28;20271;-63
2023/08/25 11:58:48;;;;;;;24.83;15.13;;;23.40;99.90;;;;;;5041200;28;20217;-63
2023/08/25 12:01:17;;;;;;;27.17;15.17;;;23.30;99.90;;;;;;5042798;28;20236;-63
2023/08/25 12:03:46;;;;;;;27.23;15.47;;;23.20;99.90;;;;;;5047670;28;20286;-59
2023/08/25 12:06:16;;;;;;;26.03;15.50;;;23.30;99.90;;;;;;5047595;28;20228;-64
2023/08/25 12:08:50;;;;;;;26.97;15.67;;;23.40;99.90;;;;;;5038314;28;20192;-61
2023/08/25 12:11:18;;;;;;;31.23;17.60;;;23.30;99.90;;;;;;5041942;28;20782;-60
2023/08/25 12:13:48;;;;;;;29.23;16.87;;;23.30;99.90;;;;;;5038726;28;20219;-61
2023/08/25 12:16:19;;;;;;;22.50;15.23;;;23.40;99.90;;;;;;5041329;28;20675;-60
2023/08/25 12:18:53;;;;;;;27.77;15.43;;;23.40;99.90;;;;;;5038324;28;20737;-60
2023/08/25 12:21:23;;;;;;;25.40;15.57;;;23.30;99.90;;;;;;5042680;28;20238;-60
2023/08/25 12:23:51;;;;;;;24.57;15.73;;;23.30;99.90;;;;;;5045278;28;20284;-60
2023/08/25 12:26:20;;;;;;;26.53;17.13;;;23.30;99.90;;;;;;5045887;28;20226;-60
2023/08/25 12:28:48;;;;;;;25.33;15.67;;;23.40;99.90;;;;;;5045554;28;20607;-60
2023/08/25 12:31:16;;;;;;;26.47;17.43;;;23.60;99.90;;;;;;5048471;28;20217;-60
2023/08/25 12:33:45;;;;;;;24.77;17.73;;;23.50;99.90;;;;;;5043428;28;20228;-61
2023/08/25 12:36:13;;;;;;;30.60;18.53;;;23.40;99.90;;;;;;5042751;28;20665;-60
2023/08/25 12:38:43;;;;;;;27.93;18.73;;;23.10;99.90;;;;;;5044333;28;20284;-60
2023/08/25 12:41:11;;;;;;;28.50;18.80;;;23.00;99.90;;;;;;5030561;28;20304;-60